Hauptseite
METAR-TAF:

METAR-TAF

Flughäfen :

Flughafen Lannion-Côte de Granit

Lannion, Frankreich

Breite: 48-45N, Länge: 003-28W, Höhe: 89 m

Beobachtung

Neuester Wetterbericht von vor 30 Minuten, um 22:30 UTC
Wind 7 kt aus Ost/Südost
Temperatur 10°C
Luftfeuchtigkeit 100%
Luftdruck 1021 hPa
Sichtweite: 1200 m
feuchter Dunst

METAR: LFRO 162230Z AUTO 11007KT 1400 1200 R29/1800D BR VV/// 10/10 Q1021

Zeit: 00:00 (23:00 UTC)

Prognose

Neuester Wetterbericht von vor 3 Stunden und 35 Minuten, um 19:25 UTC
Gültige Prognose vom 16 um 19 UTC bis 17 um 18 UTC
Wind 6 kt aus Ost
Sichtweite: 0700 m
Nebel
Zeitweise
vom 16 um 19 UTC bis 16 um 21 UTC
Sichtweite: 1500 m
feuchter Dunst
Übergehend zu
vom 17 um 09 UTC bis 17 um 12 UTC
Sichtweite 10 km oder mehr
Aufgelockert bewölkt in der Höhe von 1500 ft

TAF: LFRO 161925Z 1619/1718 09006KT 0700 FG VV/// TEMPO 1619/1621 1500 BR BECMG 1709/1712 9999 NSW SCT015

Wetterbeobachtungen und Prognosen von mehr als 4000 Flughäfen (METAR und TAF Bericht).

Die verfügbaren Stationen werden durch gelbe und rote Markierungen auf der Karte dargestellt.

Führen Sie die Maus auf sie, um den Namen der Station zu sehen.

Darauf klicken, um die Beobachtung von Wetterbeobachtungen und Prognosen zu sehen.

Um die Karte zu ändern : klicken Sie auf den grünen Tasten mit einem schwarzen Kreuz Zum Vergrößern, auf den grünen Button mit einem Gedankenstrich zu verkleinern, oder auf die grünen Pfeile für benachbarte Karten.


METAR-TAF: